createdAt,value
2022-12-01T00:00:58.634Z,45.60
2022-12-01T00:01:58.687Z,38.20
2022-12-01T00:02:58.587Z,43.60
2022-12-01T00:03:58.495Z,44.40
2022-12-01T00:04:58.492Z,45.10
2022-12-01T00:05:58.476Z,44.50
2022-12-01T00:06:58.477Z,44.60
2022-12-01T00:07:58.523Z,50.50
2022-12-01T00:08:58.445Z,45.30
2022-12-01T00:09:58.437Z,44.10
2022-12-01T00:10:58.418Z,46.70
2022-12-01T00:11:58.436Z,43.80
2022-12-01T00:12:58.398Z,53.90
2022-12-01T00:13:58.407Z,50.00
2022-12-01T00:14:58.380Z,47.30
2022-12-01T00:15:58.384Z,45.70
2022-12-01T00:16:58.442Z,49.30
2022-12-01T00:17:58.357Z,52.60
2022-12-01T00:18:58.340Z,50.70
2022-12-01T00:19:58.341Z,53.60
2022-12-01T00:20:58.322Z,51.70
2022-12-01T00:21:58.330Z,52.50
2022-12-01T00:22:58.299Z,61.50
2022-12-01T00:23:58.300Z,58.30
2022-12-01T00:24:58.282Z,58.60
2022-12-01T00:25:58.272Z,60.80
2022-12-01T00:26:58.277Z,57.00
2022-12-01T00:27:58.254Z,54.80
2022-12-01T00:28:58.249Z,54.60
2022-12-01T00:29:58.234Z,62.40
2022-12-01T00:30:58.263Z,68.00
2022-12-01T00:31:58.280Z,65.90
2022-12-01T00:32:58.204Z,59.10
2022-12-01T00:33:58.197Z,61.60
2022-12-01T00:34:58.175Z,63.40
2022-12-01T00:35:58.170Z,65.20
2022-12-01T00:36:58.176Z,66.90
2022-12-01T00:37:58.148Z,61.40
2022-12-01T00:38:58.136Z,66.40
2022-12-01T00:39:58.130Z,64.50
2022-12-01T00:40:58.110Z,62.80
2022-12-01T00:41:58.127Z,77.10
2022-12-01T00:42:58.094Z,75.80
2022-12-01T00:43:58.088Z,72.50
2022-12-01T00:44:58.079Z,70.80
2022-12-01T00:45:58.137Z,70.10
2022-12-01T00:46:58.069Z,73.60
2022-12-01T00:47:58.050Z,73.70
2022-12-01T00:48:58.032Z,80.10
2022-12-01T00:49:58.029Z,77.20
2022-12-01T00:50:58.009Z,75.40
2022-12-01T00:51:58.029Z,74.00
2022-12-01T00:52:57.989Z,74.20
2022-12-01T00:53:57.988Z,79.00
2022-12-01T00:54:57.970Z,70.60
2022-12-01T00:55:57.963Z,68.90
2022-12-01T00:56:57.970Z,73.00
2022-12-01T00:57:57.943Z,71.90
2022-12-01T00:58:57.933Z,72.70
2022-12-01T00:59:57.921Z,78.30
2022-12-01T01:00:57.957Z,75.80
2022-12-01T01:01:57.930Z,75.80
2022-12-01T01:02:57.896Z,80.40
2022-12-01T01:03:57.882Z,72.00
2022-12-01T01:04:57.873Z,74.50
2022-12-01T01:05:57.865Z,72.40
2022-12-01T01:06:57.865Z,80.00
2022-12-01T01:07:57.883Z,86.00
2022-12-01T01:08:57.825Z,80.60
2022-12-01T01:09:57.824Z,78.50
2022-12-01T01:10:57.805Z,76.10
2022-12-01T01:11:57.816Z,76.20
2022-12-01T01:12:57.786Z,78.60
2022-12-01T01:13:57.776Z,84.00
2022-12-01T01:14:57.766Z,83.80
2022-12-01T01:15:57.760Z,96.00
2022-12-01T01:16:57.812Z,97.10
2022-12-01T01:17:57.738Z,87.10
2022-12-01T01:18:57.728Z,88.00
2022-12-01T01:19:57.717Z,89.70
2022-12-01T01:20:57.705Z,87.30
2022-12-01T01:21:57.693Z,88.20
2022-12-01T01:22:57.700Z,87.70
2022-12-01T01:23:57.669Z,85.30
2022-12-01T01:24:57.668Z,90.00
2022-12-01T01:25:57.650Z,90.10
2022-12-01T01:26:57.652Z,93.30
2022-12-01T01:27:57.648Z,91.30
2022-12-01T01:28:57.632Z,108.20
2022-12-01T01:29:57.614Z,90.40
2022-12-01T01:30:57.656Z,94.60
2022-12-01T01:31:57.591Z,92.40
2022-12-01T01:32:57.602Z,92.60
2022-12-01T01:33:57.575Z,97.30
2022-12-01T01:34:57.562Z,93.70
2022-12-01T01:35:57.553Z,93.20
2022-12-01T01:36:57.544Z,93.50
2022-12-01T01:37:57.550Z,96.70
2022-12-01T01:38:57.529Z,89.80
2022-12-01T01:39:57.516Z,95.10
2022-12-01T01:40:57.506Z,103.50
2022-12-01T01:41:57.486Z,108.00
2022-12-01T01:42:57.503Z,95.50
2022-12-01T01:43:57.474Z,96.40
2022-12-01T01:44:57.458Z,94.70
2022-12-01T01:45:57.517Z,102.70
2022-12-01T01:46:57.453Z,107.00
2022-12-01T01:47:57.445Z,95.20
2022-12-01T01:48:57.425Z,88.30
2022-12-01T01:49:57.407Z,95.20
2022-12-01T01:50:57.398Z,102.80
2022-12-01T01:51:57.387Z,103.80
2022-12-01T01:52:57.399Z,93.20
2022-12-01T01:53:57.369Z,98.80
2022-12-01T01:54:57.365Z,98.70
2022-12-01T01:55:57.348Z,98.80
2022-12-01T01:56:57.339Z,95.70
2022-12-01T01:57:57.340Z,97.10
2022-12-01T01:58:57.320Z,104.90
2022-12-01T01:59:57.320Z,96.10
2022-12-01T02:00:57.372Z,95.00
2022-12-01T02:01:57.288Z,96.70
2022-12-01T02:02:57.441Z,93.90
2022-12-01T02:03:57.263Z,102.40
2022-12-01T02:04:57.262Z,96.90
2022-12-01T02:06:01.813Z,99.40
2022-12-01T02:06:58.240Z,108.30
2022-12-01T02:07:57.341Z,112.50
2022-12-01T02:08:57.212Z,96.10
2022-12-01T02:09:57.203Z,102.50
2022-12-01T02:10:57.194Z,98.60
2022-12-01T02:11:57.192Z,101.20
2022-12-01T02:12:57.196Z,113.10
2022-12-01T02:13:57.165Z,102.30
2022-12-01T02:14:57.164Z,105.30
2022-12-01T02:15:57.154Z,101.30
2022-12-01T02:16:57.194Z,98.70
2022-12-01T02:17:57.136Z,101.50
2022-12-01T02:18:57.117Z,101.60
2022-12-01T02:19:57.103Z,102.60
2022-12-01T02:20:57.126Z,99.60
2022-12-01T02:21:57.107Z,105.30
2022-12-01T02:22:57.096Z,113.30
2022-12-01T02:23:57.057Z,117.20
2022-12-01T02:24:57.056Z,105.30
2022-12-01T02:25:57.038Z,108.80
2022-12-01T02:26:57.037Z,105.40
2022-12-01T02:27:57.039Z,109.90
2022-12-01T02:28:57.041Z,101.80
2022-12-01T02:29:56.999Z,104.20
2022-12-01T02:30:57.072Z,108.10
2022-12-01T02:31:56.982Z,105.60
2022-12-01T02:32:57.021Z,108.60
2022-12-01T02:33:56.959Z,107.50
2022-12-01T02:34:56.951Z,104.80
2022-12-01T02:35:56.940Z,107.20
2022-12-01T02:36:56.938Z,106.20
2022-12-01T02:37:56.941Z,107.40
2022-12-01T02:38:56.911Z,106.80
2022-12-01T02:39:56.900Z,104.30
2022-12-01T02:40:56.892Z,110.20
2022-12-01T02:41:56.882Z,117.20
2022-12-01T02:42:56.890Z,116.10
2022-12-01T02:43:56.852Z,105.20
2022-12-01T02:44:56.853Z,108.40
2022-12-01T02:45:56.900Z,111.30
2022-12-01T02:46:56.833Z,118.70
2022-12-01T02:47:56.834Z,115.80
2022-12-01T02:48:56.812Z,117.70
2022-12-01T02:49:56.793Z,110.60
2022-12-01T02:50:56.791Z,104.30
2022-12-01T02:51:56.791Z,123.10
2022-12-01T02:52:56.786Z,114.30
2022-12-01T02:53:56.754Z,113.90
2022-12-01T02:54:56.756Z,111.60
2022-12-01T02:55:56.735Z,112.90
2022-12-01T02:56:56.726Z,129.80
2022-12-01T02:57:56.728Z,116.90
2022-12-01T02:58:56.706Z,120.80
2022-12-01T02:59:56.699Z,119.70
2022-12-01T03:00:56.767Z,113.40
2022-12-01T03:01:56.676Z,118.50
2022-12-01T03:02:56.747Z,119.30
2022-12-01T03:03:56.660Z,122.20
2022-12-01T03:04:56.647Z,121.40
2022-12-01T03:05:56.631Z,122.40
2022-12-01T03:06:56.628Z,118.70
2022-12-01T03:07:56.730Z,123.00
2022-12-01T03:08:56.610Z,119.20
2022-12-01T03:09:56.598Z,118.30
2022-12-01T03:10:56.588Z,126.10
2022-12-01T03:11:56.581Z,130.50
2022-12-01T03:12:56.588Z,135.90
2022-12-01T03:13:56.550Z,134.30
2022-12-01T03:14:56.542Z,131.10
2022-12-01T03:15:56.579Z,125.70
2022-12-01T03:16:56.523Z,123.70
2022-12-01T03:17:56.522Z,137.00
2022-12-01T03:18:56.511Z,129.70
2022-12-01T03:19:56.483Z,126.40
2022-12-01T03:20:56.483Z,124.10
2022-12-01T03:21:56.493Z,122.50
2022-12-01T03:22:56.483Z,127.20
2022-12-01T03:23:56.444Z,129.80
2022-12-01T03:24:56.467Z,127.70
2022-12-01T03:25:56.461Z,125.70
2022-12-01T03:26:56.437Z,126.60
2022-12-01T03:28:20.081Z,130.20
2022-12-01T03:28:57.403Z,136.50
2022-12-01T03:29:56.392Z,144.20
2022-12-01T03:30:56.421Z,128.30
2022-12-01T03:31:56.366Z,130.60
2022-12-01T03:32:56.377Z,132.00
2022-12-01T03:33:56.357Z,134.60
2022-12-01T03:34:56.337Z,128.70
2022-12-01T03:35:56.327Z,125.70
2022-12-01T03:36:56.329Z,129.90
2022-12-01T03:37:56.338Z,145.10
2022-12-01T03:38:56.306Z,137.50
2022-12-01T03:40:00.322Z,125.70
2022-12-01T03:40:56.287Z,130.80
2022-12-01T03:41:56.269Z,125.60
2022-12-01T03:42:56.278Z,128.60
2022-12-01T03:43:56.240Z,133.50
2022-12-01T03:44:56.240Z,129.70
2022-12-01T03:45:56.288Z,129.90
2022-12-01T03:46:56.231Z,130.10
2022-12-01T03:47:56.221Z,142.30
2022-12-01T03:48:56.209Z,148.80
2022-12-01T03:49:56.182Z,129.00
2022-12-01T03:50:56.185Z,123.90
2022-12-01T03:51:56.172Z,130.60
2022-12-01T03:52:56.203Z,128.80
2022-12-01T03:53:56.142Z,125.90
2022-12-01T03:54:56.146Z,130.00
2022-12-01T03:55:56.152Z,131.10
2022-12-01T03:56:56.132Z,131.00
2022-12-01T03:57:56.117Z,130.20
2022-12-01T03:58:56.104Z,131.10
2022-12-01T03:59:56.085Z,135.30
2022-12-01T04:00:56.075Z,144.90
2022-12-01T04:01:56.129Z,152.40
2022-12-01T04:02:56.167Z,128.90
2022-12-01T04:03:56.046Z,127.00
2022-12-01T04:04:56.037Z,134.90
2022-12-01T04:05:56.025Z,147.80
2022-12-01T04:06:56.027Z,145.90
2022-12-01T04:07:56.061Z,129.40
2022-12-01T04:08:55.996Z,127.50
2022-12-01T04:09:55.980Z,133.30
2022-12-01T04:10:55.975Z,145.80
2022-12-01T04:11:55.961Z,133.30
2022-12-01T04:12:55.959Z,134.20
2022-12-01T04:13:55.968Z,126.20
2022-12-01T04:14:55.948Z,138.70
2022-12-01T04:15:56.047Z,143.80
2022-12-01T04:16:55.918Z,133.00
2022-12-01T04:17:55.899Z,129.10
2022-12-01T04:18:55.911Z,128.80
2022-12-01T04:19:55.882Z,122.00
2022-12-01T04:20:55.879Z,125.10
2022-12-01T04:21:55.862Z,127.00
2022-12-01T04:22:55.862Z,123.40
2022-12-01T04:23:55.862Z,128.30
2022-12-01T04:24:55.832Z,127.60
2022-12-01T04:25:55.822Z,122.60
2022-12-01T04:26:55.815Z,123.90
2022-12-01T04:27:55.803Z,117.80
2022-12-01T04:28:55.813Z,123.40
2022-12-01T04:29:55.789Z,124.20
2022-12-01T04:30:55.850Z,122.10
2022-12-01T04:31:55.765Z,124.80
2022-12-01T04:32:55.759Z,122.00
2022-12-01T04:33:55.762Z,118.50
2022-12-01T04:34:55.736Z,135.00
2022-12-01T04:35:55.716Z,131.20
2022-12-01T04:36:55.714Z,118.70
2022-12-01T04:37:55.705Z,114.90
2022-12-01T04:38:55.707Z,128.50
2022-12-01T04:39:55.678Z,128.40
2022-12-01T04:40:55.684Z,123.60
2022-12-01T04:41:55.658Z,123.60
2022-12-01T04:42:55.657Z,121.00
2022-12-01T04:43:55.656Z,117.90
2022-12-01T04:44:55.627Z,116.00
2022-12-01T04:45:55.618Z,118.50
2022-12-01T04:46:55.669Z,125.60
2022-12-01T04:47:55.589Z,134.20
2022-12-01T04:48:55.615Z,115.90
2022-12-01T04:49:55.580Z,113.80
2022-12-01T04:50:55.569Z,116.50
2022-12-01T04:51:55.567Z,111.40
2022-12-01T04:52:55.549Z,109.30
2022-12-01T04:53:55.559Z,109.80
2022-12-01T04:54:55.530Z,115.80
2022-12-01T04:55:55.521Z,110.50
2022-12-01T04:56:55.513Z,119.60
2022-12-01T04:57:55.501Z,129.10
2022-12-01T04:58:55.508Z,119.80
2022-12-01T04:59:55.472Z,119.50
2022-12-01T05:00:55.565Z,118.50
2022-12-01T05:01:55.530Z,129.20
2022-12-01T05:02:55.469Z,115.30
2022-12-01T05:03:55.454Z,116.00
2022-12-01T05:04:55.445Z,112.40
2022-12-01T05:05:55.426Z,108.50
2022-12-01T05:06:55.417Z,109.40
2022-12-01T05:07:55.462Z,106.90
2022-12-01T05:08:55.413Z,108.60
2022-12-01T05:09:55.375Z,108.80
2022-12-01T05:10:55.366Z,103.50
2022-12-01T05:11:55.357Z,110.90
2022-12-01T05:12:55.347Z,107.50
2022-12-01T05:13:55.347Z,111.00
2022-12-01T05:14:55.333Z,105.30
2022-12-01T05:15:55.337Z,103.10
2022-12-01T05:16:55.308Z,112.70
2022-12-01T05:17:55.298Z,119.30
2022-12-01T05:18:55.354Z,121.90
2022-12-01T05:19:55.268Z,109.40
2022-12-01T05:20:55.268Z,98.60
2022-12-01T05:21:55.263Z,108.50
2022-12-01T05:23:05.365Z,123.10
2022-12-01T05:23:56.249Z,104.20
2022-12-01T05:24:55.228Z,103.50
2022-12-01T05:25:55.211Z,97.60
2022-12-01T05:26:55.212Z,109.20
2022-12-01T05:27:55.191Z,108.70
2022-12-01T05:28:55.201Z,98.70
2022-12-01T05:29:55.172Z,98.70
2022-12-01T05:30:55.171Z,110.40
2022-12-01T05:31:55.251Z,110.00
2022-12-01T05:32:55.141Z,95.20
2022-12-01T05:33:55.154Z,99.50
2022-12-01T05:34:55.191Z,100.30
2022-12-01T05:35:55.132Z,118.30
2022-12-01T05:36:55.105Z,100.10
2022-12-01T05:37:55.103Z,99.30
2022-12-01T05:38:55.103Z,101.30
2022-12-01T05:39:55.105Z,111.00
2022-12-01T05:40:55.072Z,111.20
2022-12-01T05:41:55.056Z,100.20
2022-12-01T05:42:55.043Z,95.20
2022-12-01T05:43:55.059Z,102.00
2022-12-01T05:44:55.025Z,114.50
2022-12-01T05:45:55.051Z,97.60
2022-12-01T05:46:54.998Z,94.10
2022-12-01T05:47:54.995Z,99.40
2022-12-01T05:48:54.998Z,94.30
2022-12-01T05:49:54.980Z,98.40
2022-12-01T05:50:54.958Z,96.80
2022-12-01T05:51:54.957Z,108.10
2022-12-01T05:52:54.937Z,98.70
2022-12-01T05:53:54.956Z,94.10
2022-12-01T05:54:54.918Z,96.60
2022-12-01T05:55:54.918Z,104.60
2022-12-01T05:56:54.899Z,96.90
2022-12-01T05:57:54.910Z,93.90
2022-12-01T05:58:54.898Z,91.00
2022-12-01T05:59:54.888Z,116.00
2022-12-01T06:00:55.098Z,100.90
2022-12-01T06:01:54.906Z,90.90
2022-12-01T06:02:54.841Z,95.40
2022-12-01T06:03:54.895Z,104.30
2022-12-01T06:04:54.822Z,97.20
2022-12-01T06:05:54.812Z,90.50
2022-12-01T06:06:54.802Z,90.80
2022-12-01T06:07:54.825Z,104.40
2022-12-01T06:08:54.801Z,96.30
2022-12-01T06:09:54.772Z,88.20
2022-12-01T06:10:54.752Z,88.10
2022-12-01T06:11:54.753Z,96.80
2022-12-01T06:12:54.743Z,102.60
2022-12-01T06:13:54.754Z,92.50
2022-12-01T06:14:54.804Z,88.60
2022-12-01T06:15:54.713Z,88.30
2022-12-01T06:16:54.730Z,94.30
2022-12-01T06:17:54.695Z,93.60
2022-12-01T06:18:54.694Z,87.60
2022-12-01T06:19:54.673Z,91.80
2022-12-01T06:20:54.657Z,101.50
2022-12-01T06:21:54.661Z,96.30
2022-12-01T06:22:54.636Z,86.90
2022-12-01T06:23:54.647Z,94.70
2022-12-01T06:24:54.617Z,103.20
2022-12-01T06:25:54.615Z,92.50
2022-12-01T06:26:54.597Z,87.30
2022-12-01T06:27:54.588Z,88.10
2022-12-01T06:28:54.599Z,92.90
2022-12-01T06:29:54.653Z,104.60
2022-12-01T06:30:59.469Z,88.50
2022-12-01T06:31:55.642Z,87.90
2022-12-01T06:32:54.548Z,88.90
2022-12-01T06:33:54.555Z,100.80
2022-12-01T06:34:54.518Z,91.90
2022-12-01T06:35:54.511Z,88.30
2022-12-01T06:36:54.501Z,84.30
2022-12-01T06:37:54.492Z,99.80
2022-12-01T06:38:54.490Z,98.30
2022-12-01T06:39:54.470Z,87.70
2022-12-01T06:40:54.451Z,87.30
2022-12-01T06:41:54.454Z,85.20
2022-12-01T06:42:54.441Z,94.00
2022-12-01T06:43:54.452Z,90.90
2022-12-01T06:44:54.422Z,84.50
2022-12-01T06:46:00.904Z,86.60
2022-12-01T06:46:55.394Z,94.50
2022-12-01T06:47:54.397Z,89.90
2022-12-01T06:48:54.393Z,86.20
2022-12-01T06:49:54.332Z,84.60
2022-12-01T06:50:54.305Z,94.40
2022-12-01T06:51:54.295Z,84.80
2022-12-01T06:52:54.337Z,87.10
2022-12-01T06:53:54.347Z,85.50
2022-12-01T06:54:54.314Z,109.00
2022-12-01T06:55:54.315Z,78.00
2022-12-01T06:56:54.295Z,79.30
2022-12-01T06:57:54.291Z,81.00
2022-12-01T06:58:54.246Z,80.80
2022-12-01T06:59:54.219Z,75.10
2022-12-01T07:00:54.277Z,83.00
2022-12-01T07:01:54.285Z,79.60
2022-12-01T07:02:54.231Z,78.50
2022-12-01T07:03:54.248Z,87.50
2022-12-01T07:04:54.208Z,87.10
2022-12-01T07:05:54.210Z,81.80
2022-12-01T07:06:54.210Z,77.20
2022-12-01T07:07:59.322Z,79.80
2022-12-01T07:08:55.142Z,83.40
2022-12-01T07:09:54.116Z,88.30
2022-12-01T07:10:54.101Z,81.60
2022-12-01T07:11:54.108Z,81.30
2022-12-01T07:12:54.081Z,78.70
2022-12-01T07:13:54.080Z,86.90
2022-12-01T07:14:54.070Z,73.00
2022-12-01T07:15:54.051Z,71.80
2022-12-01T07:16:54.132Z,68.70
2022-12-01T07:17:54.039Z,87.10
2022-12-01T07:18:54.020Z,77.40
2022-12-01T07:19:54.031Z,71.30
2022-12-01T07:20:54.010Z,74.30
2022-12-01T07:21:53.993Z,89.30
2022-12-01T07:22:53.984Z,71.60
2022-12-01T07:23:53.975Z,73.60
2022-12-01T07:24:53.975Z,70.50
2022-12-01T07:25:53.964Z,86.00
2022-12-01T07:26:53.934Z,86.40
2022-12-01T07:27:53.935Z,75.70
2022-12-01T07:28:53.915Z,75.50
2022-12-01T07:29:53.933Z,85.60
2022-12-01T07:30:53.932Z,79.00
2022-12-01T07:31:53.897Z,76.40
2022-12-01T07:32:53.876Z,76.70
2022-12-01T07:33:53.875Z,81.10
2022-12-01T07:34:53.876Z,82.70
2022-12-01T07:35:53.857Z,79.30
2022-12-01T07:36:53.837Z,74.80
2022-12-01T07:37:53.838Z,85.60
2022-12-01T07:38:53.817Z,88.00
2022-12-01T07:39:53.838Z,74.40
2022-12-01T07:40:53.799Z,69.60
2022-12-01T07:41:53.796Z,87.50
2022-12-01T07:42:53.779Z,74.80
2022-12-01T07:43:53.767Z,81.70
2022-12-01T07:44:53.780Z,75.00
2022-12-01T07:45:53.851Z,94.60
2022-12-01T07:46:53.741Z,83.90
2022-12-01T07:47:53.732Z,82.80
2022-12-01T07:48:53.720Z,79.50
2022-12-01T07:49:53.733Z,82.40
2022-12-01T07:50:53.692Z,79.70
2022-12-01T07:51:53.689Z,74.90
2022-12-01T07:52:53.678Z,74.30
2022-12-01T07:53:53.671Z,85.40
2022-12-01T07:54:53.671Z,79.00
2022-12-01T07:55:53.654Z,74.50
2022-12-01T07:56:53.640Z,71.20
2022-12-01T07:57:53.632Z,84.30
2022-12-01T07:58:53.615Z,79.90
2022-12-01T07:59:53.632Z,75.20
2022-12-01T08:00:53.593Z,72.50
2022-12-01T08:01:53.670Z,91.20
2022-12-01T08:02:53.599Z,74.40
2022-12-01T08:03:53.574Z,74.90
2022-12-01T08:04:53.577Z,71.20
2022-12-01T08:05:53.552Z,81.60
2022-12-01T08:06:53.566Z,75.40
2022-12-01T08:07:53.585Z,68.50
2022-12-01T08:08:53.523Z,69.30
2022-12-01T08:09:53.527Z,72.50
2022-12-01T08:10:53.498Z,78.90
2022-12-01T08:11:53.497Z,80.80
2022-12-01T08:12:53.486Z,71.10
2022-12-01T08:13:53.476Z,75.00
2022-12-01T08:14:53.468Z,69.90
2022-12-01T08:15:53.460Z,78.40
2022-12-01T08:16:53.431Z,74.40
2022-12-01T08:17:53.431Z,71.70
2022-12-01T08:18:53.422Z,67.70
2022-12-01T08:19:53.428Z,80.00
2022-12-01T08:20:53.400Z,74.80
2022-12-01T08:21:53.389Z,69.00
2022-12-01T08:22:53.378Z,69.10
2022-12-01T08:23:53.369Z,70.60
2022-12-01T08:24:53.373Z,75.70
2022-12-01T08:25:53.349Z,74.80
2022-12-01T08:26:53.330Z,70.90
2022-12-01T08:27:53.330Z,70.10
2022-12-01T08:28:53.311Z,65.30
2022-12-01T08:29:53.332Z,66.80
2022-12-01T08:30:53.327Z,66.60
2022-12-01T08:31:53.293Z,67.80
2022-12-01T08:32:53.273Z,68.60
2022-12-01T08:33:53.294Z,66.70
2022-12-01T08:34:53.812Z,67.90
2022-12-01T08:35:53.245Z,71.60
2022-12-01T08:36:53.244Z,70.80
2022-12-01T08:37:53.233Z,72.60
2022-12-01T08:38:53.213Z,75.20
2022-12-01T08:39:53.224Z,69.00
2022-12-01T08:40:53.195Z,70.70
2022-12-01T08:41:53.190Z,68.50
2022-12-01T08:42:53.175Z,67.90
2022-12-01T08:43:58.478Z,79.20
2022-12-01T08:44:54.224Z,73.30
2022-12-01T08:45:53.146Z,68.60
2022-12-01T08:46:53.165Z,69.40
2022-12-01T08:47:53.125Z,79.30
2022-12-01T08:48:53.118Z,67.10
2022-12-01T08:49:53.128Z,70.00
2022-12-01T08:50:53.094Z,79.80
2022-12-01T08:51:53.095Z,81.70
2022-12-01T08:52:53.072Z,68.30
2022-12-01T08:53:53.066Z,70.30
2022-12-01T08:54:53.068Z,73.80
2022-12-01T08:55:53.048Z,83.20
2022-12-01T08:56:53.028Z,71.30
2022-12-01T08:57:53.030Z,68.20
2022-12-01T08:58:53.010Z,71.40
2022-12-01T08:59:53.020Z,74.20
2022-12-01T09:00:52.991Z,74.00
2022-12-01T09:01:53.047Z,68.00
2022-12-01T09:02:52.988Z,70.50
2022-12-01T09:03:52.968Z,73.00
2022-12-01T09:04:52.980Z,66.40
2022-12-01T09:05:52.956Z,69.00
2022-12-01T09:06:52.939Z,64.90
2022-12-01T09:07:52.966Z,77.00
2022-12-01T09:08:52.915Z,67.90
2022-12-01T09:09:52.969Z,66.60
2022-12-01T09:10:52.891Z,61.50
2022-12-01T09:11:52.882Z,76.00
2022-12-01T09:12:52.864Z,72.90
2022-12-01T09:13:54.713Z,62.70
2022-12-01T09:14:52.870Z,64.20
2022-12-01T09:15:52.905Z,59.90
2022-12-01T09:16:52.825Z,61.30
2022-12-01T09:17:52.824Z,61.20
2022-12-01T09:18:52.813Z,62.40
2022-12-01T09:19:52.881Z,63.80
2022-12-01T09:20:52.798Z,70.60
2022-12-01T09:21:52.785Z,71.80
2022-12-01T09:22:52.774Z,62.20
2022-12-01T09:23:52.765Z,65.40
2022-12-01T09:24:52.767Z,68.00
2022-12-01T09:25:52.748Z,76.00
2022-12-01T09:26:52.728Z,65.70
2022-12-01T09:27:52.728Z,65.70
2022-12-01T09:28:52.710Z,70.40
2022-12-01T09:29:52.718Z,67.10
2022-12-01T09:30:52.688Z,59.00
2022-12-01T09:31:52.760Z,58.60
2022-12-01T09:32:52.668Z,62.40
2022-12-01T09:33:52.659Z,62.30
2022-12-01T09:34:52.667Z,56.70
2022-12-01T09:35:52.649Z,59.00
2022-12-01T09:36:52.633Z,64.60
2022-12-01T09:37:52.620Z,57.80
2022-12-01T09:38:52.613Z,56.80
2022-12-01T09:39:52.620Z,55.90
2022-12-01T09:40:52.590Z,64.10
2022-12-01T09:41:52.581Z,52.60
2022-12-01T09:42:52.573Z,54.10
2022-12-01T09:43:52.562Z,54.20
2022-12-01T09:44:52.570Z,56.70
2022-12-01T09:45:52.542Z,50.60
2022-12-01T09:46:52.562Z,53.40
2022-12-01T09:47:52.522Z,54.60
2022-12-01T09:48:52.512Z,59.10
2022-12-01T09:49:52.524Z,51.50
2022-12-01T09:50:52.495Z,49.10
2022-12-01T09:51:52.484Z,57.80
2022-12-01T09:52:52.474Z,53.30
2022-12-01T09:53:52.456Z,45.10
2022-12-01T09:54:52.475Z,45.70
2022-12-01T09:55:52.442Z,57.80
2022-12-01T09:56:52.435Z,63.40
2022-12-01T09:57:52.424Z,50.70
2022-12-01T09:58:52.416Z,45.30
2022-12-01T09:59:52.418Z,40.80
2022-12-01T10:00:52.450Z,41.20
2022-12-01T10:01:52.506Z,35.20
2022-12-01T10:02:52.379Z,30.10
2022-12-01T10:03:52.364Z,32.40
2022-12-01T10:04:52.449Z,36.60
2022-12-01T10:06:25.228Z,39.60
2022-12-01T10:06:53.336Z,41.50
2022-12-01T10:07:52.360Z,39.70
2022-12-01T10:08:52.309Z,37.60
2022-12-01T10:09:52.441Z,44.80
2022-12-01T10:10:52.298Z,39.70
2022-12-01T10:11:52.276Z,35.90
2022-12-01T10:12:52.270Z,35.50
2022-12-01T10:13:52.258Z,44.20
2022-12-01T10:14:52.269Z,37.70
2022-12-01T10:15:52.269Z,37.20
2022-12-01T10:16:52.236Z,38.80
2022-12-01T10:17:52.220Z,39.70
2022-12-01T10:18:52.209Z,43.10
2022-12-01T10:19:52.357Z,41.40
2022-12-01T10:20:52.191Z,46.90
2022-12-01T10:21:52.174Z,43.60
2022-12-01T10:22:52.172Z,37.40
2022-12-01T10:23:52.161Z,36.30
2022-12-01T10:24:52.150Z,42.00
2022-12-01T10:25:52.154Z,38.60
2022-12-01T10:26:52.133Z,35.70
2022-12-01T10:27:52.114Z,38.60
2022-12-01T10:28:52.113Z,45.50
2022-12-01T10:29:52.253Z,41.90
2022-12-01T10:30:52.110Z,40.50
2022-12-01T10:31:52.100Z,42.20
2022-12-01T10:32:52.066Z,56.90
2022-12-01T10:33:52.056Z,50.20
2022-12-01T10:34:52.052Z,39.40
2022-12-01T10:35:52.056Z,39.10
2022-12-01T10:36:52.026Z,41.40
2022-12-01T10:37:52.088Z,39.00
2022-12-01T10:38:52.016Z,40.80
2022-12-01T10:39:52.547Z,51.20
2022-12-01T10:40:52.009Z,40.30
2022-12-01T10:41:51.978Z,37.90
2022-12-01T10:42:51.970Z,34.30
2022-12-01T10:43:51.961Z,44.10
2022-12-01T10:44:51.948Z,38.90
2022-12-01T10:45:51.986Z,34.00
2022-12-01T10:46:51.938Z,38.60
2022-12-01T10:47:56.161Z,44.10
2022-12-01T10:48:52.906Z,35.80
2022-12-01T10:49:52.295Z,35.50
2022-12-01T10:50:51.900Z,32.10
2022-12-01T10:51:51.869Z,42.20
2022-12-01T10:52:51.868Z,34.50
2022-12-01T10:53:51.852Z,35.70
2022-12-01T10:54:51.842Z,37.50
2022-12-01T10:55:51.850Z,39.80
2022-12-01T10:56:51.833Z,35.50
2022-12-01T10:57:51.810Z,35.00
2022-12-01T10:58:51.814Z,31.50
2022-12-01T10:59:52.007Z,35.40
2022-12-01T11:00:59.758Z,38.70
2022-12-01T11:01:52.920Z,30.10
2022-12-01T11:02:51.929Z,30.70
2022-12-01T11:03:51.783Z,38.80
2022-12-01T11:04:51.746Z,38.70
2022-12-01T11:05:51.884Z,37.20
2022-12-01T11:06:51.732Z,33.80
2022-12-01T11:07:51.787Z,32.30
2022-12-01T11:08:51.718Z,41.20
2022-12-01T11:09:51.795Z,37.40
2022-12-01T11:10:51.705Z,39.70
2022-12-01T11:11:51.666Z,33.70
2022-12-01T11:12:51.666Z,44.30
2022-12-01T11:13:51.647Z,41.50
2022-12-01T11:14:51.647Z,38.40
2022-12-01T11:15:51.654Z,33.30
2022-12-01T11:16:51.670Z,40.90
2022-12-01T11:17:51.607Z,36.90
2022-12-01T11:18:51.651Z,49.10
2022-12-01T11:19:51.929Z,43.80
2022-12-01T11:20:51.607Z,42.00
2022-12-01T11:21:51.570Z,47.20
2022-12-01T11:22:51.568Z,36.20
2022-12-01T11:23:51.550Z,35.20
2022-12-01T11:24:51.552Z,32.00
2022-12-01T11:25:51.548Z,37.50
2022-12-01T11:26:51.521Z,39.70
2022-12-01T11:27:51.510Z,41.40
2022-12-01T11:28:51.509Z,48.90
2022-12-01T11:29:51.919Z,33.90
2022-12-01T11:30:56.485Z,33.80
2022-12-01T11:31:52.472Z,38.80
2022-12-01T11:32:51.469Z,98.50
2022-12-01T11:33:51.445Z,55.40
2022-12-01T11:34:51.646Z,49.40
2022-12-01T11:35:51.452Z,110.80
2022-12-01T11:36:51.422Z,56.90
2022-12-01T11:38:27.164Z,54.80
2022-12-01T11:38:52.478Z,58.80
2022-12-01T11:39:51.860Z,45.20
2022-12-01T11:40:51.393Z,48.90
2022-12-01T11:41:51.366Z,50.20
2022-12-01T11:42:51.372Z,84.20
2022-12-01T11:44:01.249Z,68.30
2022-12-01T11:44:52.533Z,77.20
2022-12-01T11:45:51.390Z,66.60
2022-12-01T11:47:07.697Z,67.80
2022-12-01T11:47:52.309Z,70.20
2022-12-01T11:48:51.307Z,61.00
2022-12-01T11:49:51.477Z,46.10
2022-12-01T11:50:51.301Z,41.40
2022-12-01T11:51:51.268Z,38.50
2022-12-01T11:52:51.258Z,43.60
2022-12-01T11:53:51.250Z,38.20
2022-12-01T11:54:51.238Z,39.20
2022-12-01T11:55:51.249Z,35.40
2022-12-01T11:57:17.469Z,37.70
2022-12-01T11:57:52.211Z,47.00
2022-12-01T11:58:51.275Z,39.60
2022-12-01T11:59:51.497Z,38.70
2022-12-01T12:00:51.201Z,35.40
2022-12-01T12:01:51.161Z,48.20
2022-12-01T12:02:51.212Z,39.20
2022-12-01T12:03:51.178Z,39.30
2022-12-01T12:04:51.152Z,38.90
2022-12-01T12:05:51.467Z,41.00
2022-12-01T12:06:51.131Z,47.50
2022-12-01T12:07:51.136Z,47.10
2022-12-01T12:08:51.186Z,44.80
2022-12-01T12:09:51.583Z,38.60
2022-12-01T12:10:51.186Z,45.70
2022-12-01T12:11:51.069Z,49.10
2022-12-01T12:12:51.062Z,43.70
2022-12-01T12:13:51.044Z,43.10
2022-12-01T12:14:51.046Z,45.30
2022-12-01T12:15:51.053Z,43.90
2022-12-01T12:16:51.017Z,54.80
2022-12-01T12:17:51.049Z,41.40
2022-12-01T12:18:51.003Z,38.50
2022-12-01T12:20:08.065Z,40.30
2022-12-01T12:20:52.006Z,42.90
2022-12-01T12:21:50.965Z,51.40
2022-12-01T12:22:55.212Z,41.80
2022-12-01T12:23:50.944Z,43.40
2022-12-01T12:24:50.935Z,43.40
2022-12-01T12:25:50.945Z,42.90
2022-12-01T12:26:50.917Z,43.30
2022-12-01T12:27:50.906Z,47.50
2022-12-01T12:28:50.908Z,42.20
2022-12-01T12:29:51.338Z,44.10
2022-12-01T12:30:50.948Z,42.40
2022-12-01T12:31:50.865Z,44.10
2022-12-01T12:32:50.859Z,54.60
2022-12-01T12:33:50.849Z,43.50
2022-12-01T12:34:50.837Z,44.70
2022-12-01T12:35:50.839Z,46.10
2022-12-01T12:36:50.826Z,52.50
2022-12-01T12:37:50.827Z,47.60
2022-12-01T12:38:50.799Z,58.10
2022-12-01T12:39:51.257Z,52.30
2022-12-01T12:40:50.799Z,57.90
2022-12-01T12:41:50.760Z,50.80
2022-12-01T12:42:50.762Z,49.50
2022-12-01T12:43:50.744Z,57.20
2022-12-01T12:44:50.739Z,55.70
2022-12-01T12:45:50.799Z,54.70